createdAt,value
2022-11-21T00:00:04.740Z,-2.04
2022-11-21T00:02:49.735Z,-2.03
2022-11-21T00:05:42.012Z,-2.00
2022-11-21T00:08:26.699Z,-1.97
2022-11-21T00:11:12.043Z,-1.95
2022-11-21T00:13:57.258Z,-1.94
2022-11-21T00:16:42.209Z,-1.93
2022-11-21T00:19:27.130Z,-1.91
2022-11-21T00:22:11.682Z,-1.91
2022-11-21T00:24:57.449Z,-1.89
2022-11-21T00:27:42.315Z,-1.90
2022-11-21T00:30:27.837Z,-1.92
2022-11-21T00:33:12.340Z,-1.92
2022-11-21T00:35:57.279Z,-1.95
2022-11-21T00:38:41.830Z,-1.93
2022-11-21T00:41:26.647Z,-1.92
2022-11-21T00:44:11.226Z,-1.92
2022-11-21T00:46:56.109Z,-1.91
2022-11-21T00:49:40.686Z,-1.94
2022-11-21T00:52:25.765Z,-1.93
2022-11-21T00:55:10.686Z,-1.93
2022-11-21T00:57:55.714Z,-1.94
2022-11-21T01:00:40.918Z,-1.95
2022-11-21T01:03:25.763Z,-1.95
2022-11-21T01:06:13.219Z,-1.95
2022-11-21T01:08:58.242Z,-1.95
2022-11-21T01:11:43.153Z,-1.92
2022-11-21T01:14:28.310Z,-1.93
2022-11-21T01:17:13.349Z,-1.92
2022-11-21T01:19:57.888Z,-1.90
2022-11-21T01:22:42.815Z,-1.89
2022-11-21T01:25:27.785Z,-1.89
2022-11-21T01:28:12.936Z,-1.87
2022-11-21T01:31:04.970Z,-1.88
2022-11-21T01:33:49.879Z,-1.88
2022-11-21T01:36:34.977Z,-1.89
2022-11-21T01:39:19.729Z,-1.88
2022-11-21T01:42:04.449Z,-1.89
2022-11-21T01:44:52.815Z,-1.88
2022-11-21T01:47:37.814Z,-1.87
2022-11-21T01:50:22.512Z,-1.86
2022-11-21T01:53:07.334Z,-1.86
2022-11-21T01:55:53.032Z,-1.87
2022-11-21T01:58:40.540Z,-1.88
2022-11-21T02:01:26.897Z,-1.88
2022-11-21T02:04:11.824Z,-1.92
2022-11-21T02:06:57.707Z,-1.89
2022-11-21T02:09:46.342Z,-1.88
2022-11-21T02:12:37.717Z,-1.89
2022-11-21T02:15:25.237Z,-1.89
2022-11-21T02:18:09.751Z,-1.88
2022-11-21T02:21:05.965Z,-1.88
2022-11-21T02:24:04.888Z,-1.83
2022-11-21T02:26:49.545Z,-1.82
2022-11-21T02:29:34.516Z,-1.78
2022-11-21T02:32:23.513Z,-1.76
2022-11-21T02:35:08.508Z,-1.79
2022-11-21T02:37:58.395Z,-1.77
2022-11-21T02:41:11.088Z,-1.76
2022-11-21T02:44:03.245Z,-1.77
2022-11-21T02:46:50.317Z,-1.75
2022-11-21T02:49:59.535Z,-1.75
2022-11-21T02:52:44.110Z,-1.73
2022-11-21T02:55:29.193Z,-1.75
2022-11-21T02:58:14.261Z,-1.72
2022-11-21T03:00:59.112Z,-1.69
2022-11-21T03:03:44.210Z,-1.70
2022-11-21T03:06:29.236Z,-1.68
2022-11-21T03:09:14.136Z,-1.65
2022-11-21T03:11:59.038Z,-1.68
2022-11-21T03:14:43.956Z,-1.63
2022-11-21T03:17:28.882Z,-1.64
2022-11-21T03:20:14.042Z,-1.63
2022-11-21T03:22:59.010Z,-1.63
2022-11-21T03:25:44.095Z,-1.60
2022-11-21T03:28:29.300Z,-1.61
2022-11-21T03:31:13.913Z,-1.60
2022-11-21T03:33:58.897Z,-1.59
2022-11-21T03:36:43.664Z,-1.59
2022-11-21T03:39:31.622Z,-1.55
2022-11-21T03:42:16.104Z,-1.57
2022-11-21T03:45:00.993Z,-1.54
2022-11-21T03:47:45.461Z,-1.56
2022-11-21T03:50:30.375Z,-1.56
2022-11-21T03:53:15.219Z,-1.52
2022-11-21T03:56:00.167Z,-1.51
2022-11-21T03:58:45.232Z,-1.53
2022-11-21T04:01:35.247Z,-1.54
2022-11-21T04:04:21.345Z,-1.55
2022-11-21T04:07:06.417Z,-1.54
2022-11-21T04:09:51.289Z,-1.54
2022-11-21T04:12:36.259Z,-1.52
2022-11-21T04:15:20.885Z,-1.52
2022-11-21T04:18:06.102Z,-1.53
2022-11-21T04:21:05.093Z,-1.52
2022-11-21T04:23:50.263Z,-1.54
2022-11-21T04:26:35.164Z,-1.51
2022-11-21T04:29:19.670Z,-1.52
2022-11-21T04:32:04.852Z,-1.53
2022-11-21T04:34:49.921Z,-1.51
2022-11-21T04:37:35.005Z,-1.51
2022-11-21T04:40:19.849Z,-1.47
2022-11-21T04:43:05.697Z,-1.46
2022-11-21T04:45:50.268Z,-1.46
2022-11-21T04:48:35.165Z,-1.44
2022-11-21T04:51:19.924Z,-1.43
2022-11-21T04:54:04.949Z,-1.41
2022-11-21T04:56:50.070Z,-1.42
2022-11-21T04:59:34.902Z,-1.40
2022-11-21T05:02:19.705Z,-1.39
2022-11-21T05:05:05.156Z,-1.38
2022-11-21T05:07:50.151Z,-1.37
2022-11-21T05:10:54.950Z,-1.39
2022-11-21T05:13:39.532Z,-1.35
2022-11-21T05:16:24.367Z,-1.34
2022-11-21T05:19:09.137Z,-1.37
2022-11-21T05:21:53.741Z,-1.36
2022-11-21T05:24:38.451Z,-1.36
2022-11-21T05:27:23.147Z,-1.34
2022-11-21T05:30:08.579Z,-1.34
2022-11-21T05:32:53.473Z,-1.34
2022-11-21T05:35:42.878Z,-1.32
2022-11-21T05:38:28.574Z,-1.32
2022-11-21T05:41:13.528Z,-1.31
2022-11-21T05:43:58.188Z,-1.32
2022-11-21T05:46:43.317Z,-1.31
2022-11-21T05:49:27.867Z,-1.29
2022-11-21T05:52:12.509Z,-1.27
2022-11-21T05:54:57.354Z,-1.29
2022-11-21T05:57:42.314Z,-1.27
2022-11-21T06:00:28.402Z,-1.23
2022-11-21T06:03:28.274Z,-1.23
2022-11-21T06:06:17.660Z,-1.20
2022-11-21T06:09:04.538Z,-1.15
2022-11-21T06:11:49.311Z,-1.15
2022-11-21T06:14:34.189Z,-1.09
2022-11-21T06:17:19.258Z,-1.05
2022-11-21T06:20:04.638Z,-1.02
2022-11-21T06:22:49.810Z,-0.94
2022-11-21T06:25:34.770Z,-0.89
2022-11-21T06:28:19.607Z,-0.83
2022-11-21T06:31:06.443Z,-0.76
2022-11-21T06:33:53.191Z,-0.71
2022-11-21T06:36:38.526Z,-0.68
2022-11-21T06:39:23.330Z,-0.67
2022-11-21T06:42:09.333Z,-0.65
2022-11-21T06:44:54.242Z,-0.56
2022-11-21T06:47:39.138Z,-0.48
2022-11-21T06:50:24.382Z,-0.44
2022-11-21T06:53:09.221Z,-0.38
2022-11-21T06:56:04.853Z,-0.34
2022-11-21T06:58:49.784Z,-0.31
2022-11-21T07:01:35.313Z,-0.31
2022-11-21T07:04:21.567Z,-0.22
2022-11-21T07:07:07.291Z,-0.18
2022-11-21T07:09:52.468Z,-0.17
2022-11-21T07:13:00.720Z,-0.17
2022-11-21T07:15:47.209Z,-0.09
2022-11-21T07:18:33.584Z,-0.12
2022-11-21T07:21:18.635Z,-0.04
2022-11-21T07:24:04.029Z,-0.02
2022-11-21T07:26:52.060Z,0.00
2022-11-21T07:29:38.461Z,0.03
2022-11-21T07:32:27.374Z,0.04
2022-11-21T07:35:11.979Z,0.07
2022-11-21T07:38:07.047Z,0.05
2022-11-21T07:40:53.093Z,0.11
2022-11-21T07:43:37.842Z,0.14
2022-11-21T07:46:54.988Z,0.18
2022-11-21T07:49:40.608Z,0.21
2022-11-21T07:52:31.747Z,0.28
2022-11-21T07:55:16.839Z,0.38
2022-11-21T07:58:13.368Z,0.46
2022-11-21T08:00:58.460Z,0.45
2022-11-21T08:03:45.505Z,0.53
2022-11-21T08:06:30.409Z,0.59
2022-11-21T08:09:15.578Z,0.65
2022-11-21T08:12:00.451Z,0.68
2022-11-21T08:14:47.156Z,0.74
2022-11-21T08:17:33.113Z,0.72
2022-11-21T08:21:06.164Z,0.73
2022-11-21T08:24:19.260Z,0.72
2022-11-21T08:27:04.569Z,0.68
2022-11-21T08:29:49.740Z,0.68
2022-11-21T08:33:05.106Z,0.71
2022-11-21T08:35:53.910Z,0.80
2022-11-21T08:38:41.504Z,0.84
2022-11-21T08:41:53.361Z,0.79
2022-11-21T08:44:44.216Z,0.96
2022-11-21T08:47:55.981Z,1.02
2022-11-21T08:50:41.701Z,0.90
2022-11-21T08:53:28.113Z,0.94
2022-11-21T08:56:14.861Z,0.94
2022-11-21T08:59:07.407Z,0.75
2022-11-21T09:01:52.965Z,0.82
2022-11-21T09:04:44.111Z,0.93
2022-11-21T09:07:33.596Z,0.77
2022-11-21T09:10:18.635Z,0.85
2022-11-21T09:13:04.153Z,0.86
2022-11-21T09:16:08.030Z,0.83
2022-11-21T09:18:53.406Z,0.86
2022-11-21T09:21:38.548Z,0.86
2022-11-21T09:24:23.346Z,0.88
2022-11-21T09:27:08.622Z,0.83
2022-11-21T09:29:55.791Z,0.90
2022-11-21T09:32:40.889Z,0.96
2022-11-21T09:35:25.693Z,1.00
2022-11-21T09:38:11.038Z,1.00
2022-11-21T09:41:51.568Z,1.01
2022-11-21T09:45:10.485Z,0.97
2022-11-21T09:48:12.261Z,1.01
2022-11-21T09:51:05.561Z,1.03
2022-11-21T09:54:05.213Z,1.08
2022-11-21T09:56:53.189Z,1.13
2022-11-21T09:59:39.580Z,1.18
2022-11-21T10:02:26.016Z,1.10
2022-11-21T10:05:15.616Z,1.12
2022-11-21T10:08:07.621Z,1.08
2022-11-21T10:11:11.540Z,1.02
2022-11-21T10:14:06.247Z,1.00
2022-11-21T10:17:16.984Z,0.94
2022-11-21T10:20:25.426Z,0.86
2022-11-21T10:23:36.280Z,0.75
2022-11-21T10:26:45.381Z,0.71
2022-11-21T10:29:36.849Z,0.65
2022-11-21T10:32:45.412Z,0.57
2022-11-21T10:35:45.507Z,0.52
2022-11-21T10:38:36.306Z,0.48
2022-11-21T10:41:43.873Z,0.42
2022-11-21T10:44:48.423Z,0.44
2022-11-21T10:47:37.241Z,0.41
2022-11-21T10:50:44.849Z,0.40
2022-11-21T10:53:49.860Z,0.37
2022-11-21T10:56:35.919Z,0.32
2022-11-21T10:59:30.495Z,0.27
2022-11-21T11:02:19.161Z,0.22
2022-11-21T11:05:29.151Z,0.18
2022-11-21T11:08:14.808Z,0.08
2022-11-21T11:11:18.174Z,0.10
2022-11-21T11:14:12.950Z,0.05
2022-11-21T11:17:01.929Z,-0.04
2022-11-21T11:20:01.083Z,-0.15
2022-11-21T11:22:46.070Z,-0.16
2022-11-21T11:25:35.327Z,-0.15
2022-11-21T11:28:20.965Z,-0.12
2022-11-21T11:31:10.109Z,-0.11
2022-11-21T11:33:56.267Z,-0.10
2022-11-21T11:36:55.782Z,-0.20
2022-11-21T11:40:12.411Z,-0.22
2022-11-21T11:43:53.630Z,-0.24
2022-11-21T11:47:16.318Z,-0.22
2022-11-21T11:50:42.091Z,-0.28
2022-11-21T11:54:22.604Z,-0.31
2022-11-21T11:57:31.262Z,-0.39
2022-11-21T12:00:56.533Z,-0.47
2022-11-21T12:03:46.981Z,-0.43
2022-11-21T12:10:20.322Z,-0.49
2022-11-21T12:13:13.334Z,-0.47
2022-11-21T12:16:11.927Z,-0.47
2022-11-21T12:19:16.507Z,-0.49
2022-11-21T12:22:06.008Z,-0.44
2022-11-21T12:24:54.093Z,-0.45
2022-11-21T12:27:55.852Z,-0.48
2022-11-21T12:30:44.603Z,-0.53
2022-11-21T12:33:44.143Z,-0.53
2022-11-21T12:36:44.150Z,-0.47
2022-11-21T12:39:44.177Z,-0.49
2022-11-21T12:42:58.708Z,-0.62
2022-11-21T12:46:07.778Z,-0.72
2022-11-21T12:49:37.289Z,-0.80
2022-11-21T12:52:50.254Z,-0.73
2022-11-21T12:55:41.875Z,-0.71
2022-11-21T12:58:51.914Z,-0.75
2022-11-21T13:01:49.598Z,-0.80
2022-11-21T13:04:37.818Z,-0.85
2022-11-21T13:07:29.211Z,-0.81
2022-11-21T13:10:16.686Z,-0.81
2022-11-21T13:13:07.616Z,-0.77
2022-11-21T13:16:08.205Z,-0.81
2022-11-21T13:18:53.502Z,-0.85
2022-11-21T13:21:47.324Z,-0.82
2022-11-21T13:25:33.709Z,-0.86
2022-11-21T13:28:20.806Z,-0.85
2022-11-21T13:31:29.604Z,-0.86
2022-11-21T13:34:36.819Z,-0.87
2022-11-21T13:37:49.918Z,-0.88
2022-11-21T13:40:39.338Z,-0.92
2022-11-21T13:43:33.166Z,-0.94
2022-11-21T13:46:58.125Z,-0.97
2022-11-21T13:50:08.863Z,-1.03
2022-11-21T13:53:38.514Z,-1.02
2022-11-21T13:56:36.693Z,-1.02
2022-11-21T13:59:54.847Z,-1.01
2022-11-21T14:03:10.200Z,-1.03
2022-11-21T14:06:19.649Z,-0.99
2022-11-21T14:09:14.119Z,-0.98
2022-11-21T14:12:05.328Z,-1.00
2022-11-21T14:15:02.212Z,-1.01
2022-11-21T14:17:52.763Z,-1.03
2022-11-21T14:20:53.869Z,-1.05
2022-11-21T14:23:43.734Z,-1.05
2022-11-21T14:26:38.330Z,-1.02
2022-11-21T14:29:28.661Z,-1.09
2022-11-21T14:32:14.641Z,-1.05
2022-11-21T14:35:10.981Z,-1.06
2022-11-21T14:37:57.895Z,-1.08
2022-11-21T14:40:42.995Z,-1.08
2022-11-21T14:43:32.923Z,-1.07
2022-11-21T14:46:20.879Z,-1.09
2022-11-21T14:49:21.443Z,-1.09
2022-11-21T14:52:16.763Z,-1.11
2022-11-21T14:58:15.744Z,-1.11
2022-11-21T15:01:05.240Z,-1.12
2022-11-21T15:04:07.671Z,-1.12
2022-11-21T15:06:52.498Z,-1.12
2022-11-21T16:58:19.646Z,-1.37
2022-11-21T17:01:12.398Z,-1.38
2022-11-21T17:03:57.671Z,-1.39
2022-11-21T17:06:42.391Z,-1.38
2022-11-21T17:09:26.934Z,-1.37
2022-11-21T17:12:12.740Z,-1.39
2022-11-21T17:14:57.535Z,-1.38
2022-11-21T17:17:42.823Z,-1.43
2022-11-21T17:20:27.904Z,-1.43
2022-11-21T17:23:12.952Z,-1.40
2022-11-21T17:26:09.167Z,-1.42
2022-11-21T17:28:59.373Z,-1.41
2022-11-21T17:31:44.430Z,-1.40
2022-11-21T17:34:33.042Z,-1.42
2022-11-21T17:37:18.062Z,-1.44
2022-11-21T17:40:03.650Z,-1.43
2022-11-21T17:42:48.507Z,-1.43
2022-11-21T17:45:36.647Z,-1.44
2022-11-21T17:48:21.536Z,-1.48
2022-11-21T17:51:17.939Z,-1.43
2022-11-21T17:54:03.360Z,-1.44
2022-11-21T17:56:53.804Z,-1.43
2022-11-21T17:59:41.211Z,-1.47
2022-11-21T18:02:26.645Z,-1.48
2022-11-21T18:05:11.439Z,-1.51
2022-11-21T18:07:56.725Z,-1.51
2022-11-21T18:10:43.803Z,-1.54
2022-11-21T18:13:31.166Z,-1.52
2022-11-21T18:16:19.142Z,-1.50
2022-11-21T18:19:03.906Z,-1.50
2022-11-21T18:21:48.713Z,-1.49
2022-11-21T18:24:33.404Z,-1.52
2022-11-21T18:27:18.277Z,-1.47
2022-11-21T18:30:03.756Z,-1.51
2022-11-21T18:32:49.015Z,-1.54
2022-11-21T18:35:33.942Z,-1.57
2022-11-21T18:38:46.119Z,-1.56
2022-11-21T18:41:24.843Z,-1.60
2022-11-21T18:44:09.809Z,-1.60
2022-11-21T18:46:54.438Z,-1.59
2022-11-21T18:49:39.128Z,-1.61
2022-11-21T18:52:24.250Z,-1.64
2022-11-21T18:55:08.954Z,-1.61
2022-11-21T18:57:53.554Z,-1.64
2022-11-21T19:00:38.352Z,-1.62
2022-11-21T19:03:23.027Z,-1.63
2022-11-21T19:06:17.092Z,-1.63
2022-11-21T19:09:01.844Z,-1.68
2022-11-21T19:11:47.102Z,-1.67
2022-11-21T19:14:31.868Z,-1.69
2022-11-21T19:17:17.054Z,-1.70
2022-11-21T19:20:01.883Z,-1.70
2022-11-21T19:22:46.827Z,-1.70
2022-11-21T19:25:32.142Z,-1.67
2022-11-21T19:28:16.713Z,-1.71
2022-11-21T19:31:03.324Z,-1.69
2022-11-21T19:33:48.209Z,-1.72
2022-11-21T19:36:33.136Z,-1.68
2022-11-21T19:39:18.033Z,-1.70
2022-11-21T19:42:02.657Z,-1.71
2022-11-21T19:44:47.616Z,-1.67
2022-11-21T19:47:33.338Z,-1.69
2022-11-21T19:50:18.319Z,-1.66
2022-11-21T19:53:02.760Z,-1.67
2022-11-21T19:55:47.792Z,-1.68
2022-11-21T19:58:32.617Z,-1.66
2022-11-21T20:01:18.891Z,-1.65
2022-11-21T20:04:05.358Z,-1.65
2022-11-21T20:06:50.381Z,-1.71
2022-11-21T20:09:35.680Z,-1.73
2022-11-21T20:12:20.709Z,-1.76
2022-11-21T20:15:06.421Z,-1.75
2022-11-21T20:17:52.077Z,-1.78
2022-11-21T20:20:36.739Z,-1.78
2022-11-21T20:23:21.539Z,-1.78
2022-11-21T20:26:07.400Z,-1.78
2022-11-21T20:28:53.424Z,-1.79
2022-11-21T20:31:38.786Z,-1.78
2022-11-21T20:34:23.365Z,-1.77
2022-11-21T20:37:08.240Z,-1.75
2022-11-21T20:39:52.933Z,-1.81
2022-11-21T20:42:38.403Z,-1.82
2022-11-21T20:46:07.065Z,-1.82
2022-11-21T20:48:27.817Z,-1.89
2022-11-21T20:54:18.340Z,-1.88
2022-11-21T20:57:03.167Z,-1.85
2022-11-21T20:59:47.991Z,-1.84
2022-11-21T21:02:32.678Z,-1.84
2022-11-21T21:05:17.510Z,-1.83
2022-11-21T21:08:02.278Z,-1.82
2022-11-21T21:11:05.320Z,-1.79
2022-11-21T21:13:51.691Z,-1.81
2022-11-21T21:16:36.574Z,-1.83
2022-11-21T21:19:21.360Z,-1.83
2022-11-21T21:22:08.313Z,-1.88
2022-11-21T21:24:53.174Z,-1.90
2022-11-21T21:27:37.947Z,-1.88
2022-11-21T21:30:23.146Z,-1.90
2022-11-21T21:33:09.175Z,-1.93
2022-11-21T21:35:53.905Z,-1.90
2022-11-21T21:38:39.170Z,-1.91
2022-11-21T21:41:25.404Z,-1.89
2022-11-21T21:44:09.987Z,-1.86
2022-11-21T21:46:54.811Z,-1.82
2022-11-21T21:49:39.308Z,-1.83
2022-11-21T21:52:24.073Z,-1.83
2022-11-21T21:55:08.812Z,-1.79
2022-11-21T21:57:54.917Z,-1.83
2022-11-21T22:00:41.085Z,-1.86
2022-11-21T22:03:26.102Z,-1.87
2022-11-21T22:06:14.888Z,-1.86
2022-11-21T22:08:59.940Z,-1.84
2022-11-21T22:12:03.333Z,-1.90
2022-11-21T22:14:48.314Z,-1.91
2022-11-21T22:17:33.126Z,-1.93
2022-11-21T22:24:32.147Z,-1.98
2022-11-21T22:27:17.157Z,-2.00
2022-11-21T22:30:01.958Z,-2.03
2022-11-21T22:32:47.248Z,-1.99
2022-11-21T22:35:32.854Z,-2.00
2022-11-21T22:38:18.280Z,-1.99
2022-11-21T22:41:12.878Z,-1.94
2022-11-21T22:43:58.942Z,-1.94
2022-11-21T22:46:43.684Z,-1.91
2022-11-21T22:49:29.015Z,-1.92
2022-11-21T22:52:14.244Z,-1.92
2022-11-21T22:54:59.413Z,-1.96
2022-11-21T22:58:11.835Z,-1.95
2022-11-21T23:01:08.677Z,-1.97
2022-11-21T23:03:55.140Z,-1.99
2022-11-21T23:06:48.987Z,-1.98
2022-11-21T23:09:34.347Z,-1.97
2022-11-21T23:12:18.904Z,-1.98
2022-11-21T23:18:39.398Z,-2.00
2022-11-21T23:21:24.346Z,-2.07
2022-11-21T23:24:09.574Z,-2.05
2022-11-21T23:26:54.754Z,-2.05
2022-11-21T23:29:39.611Z,-2.04
2022-11-21T23:32:24.829Z,-2.03
2022-11-21T23:35:09.708Z,-2.02
2022-11-21T23:37:54.679Z,-2.03
2022-11-21T23:40:39.569Z,-2.03
2022-11-21T23:43:24.720Z,-2.02
2022-11-21T23:46:09.356Z,-2.03
2022-11-21T23:48:54.468Z,-2.04
2022-11-21T23:51:39.457Z,-2.07
2022-11-21T23:54:24.317Z,-2.05
2022-11-21T23:57:09.779Z,-2.07
2022-11-21T23:59:54.545Z,-2.07
